Montegut, Louisiana
Current Conditions -  °F | °C
As of 10:15 AM on Tuesday 21 Oct 2014 (Local Time) from KXPY Reporting Station
Clear Clear  
Wind Chill: 73°   Ceiling: Unl
Heat Index: 73°   Visibility: 10mi
Dew Point: 63°   Wind: 15mph
Humidity: 69%   Direction: 40°NE
Pressure: 30.08"   Gusts: NA
Location:  29.47°N, 90.56°W
Report Text: KXPY 211515Z AUTO 04013KT 10SM CLR 23/17 A3008 RMK A01
Loading
Personal Weather Stations






























Interactive Weather Map
Tropical Storm Tracking
New forecast layout! Learn more

10-Day Weather Forecast

Advertisements
Track Severe Weather on mobile